sensor_id;sensor_type;location;lat;lon;timestamp;temperature;humidity
51579;DHT22;47998;53.242;6.386;2023-05-10T00:00:33;12.10;99.90
51579;DHT22;47998;53.242;6.386;2023-05-10T00:02:59;12.30;99.90
51579;DHT22;47998;53.242;6.386;2023-05-10T00:05:25;12.20;99.90
51579;DHT22;47998;53.242;6.386;2023-05-10T00:07:50;12.30;99.90
51579;DHT22;47998;53.242;6.386;2023-05-10T00:10:16;11.90;99.90
51579;DHT22;47998;53.242;6.386;2023-05-10T00:12:42;12.30;99.90
51579;DHT22;47998;53.242;6.386;2023-05-10T00:15:08;11.90;99.90
51579;DHT22;47998;53.242;6.386;2023-05-10T00:17:34;11.90;99.90
51579;DHT22;47998;53.242;6.386;2023-05-10T00:20:00;11.80;99.90
51579;DHT22;47998;53.242;6.386;2023-05-10T00:22:26;12.10;99.90
51579;DHT22;47998;53.242;6.386;2023-05-10T00:24:51;12.30;99.90
51579;DHT22;47998;53.242;6.386;2023-05-10T00:27:17;12.30;99.90
51579;DHT22;47998;53.242;6.386;2023-05-10T00:29:42;12.30;99.90
51579;DHT22;47998;53.242;6.386;2023-05-10T00:32:08;12.10;99.90
51579;DHT22;47998;53.242;6.386;2023-05-10T00:34:34;12.20;99.90
51579;DHT22;47998;53.242;6.386;2023-05-10T00:36:59;12.10;99.90
51579;DHT22;47998;53.242;6.386;2023-05-10T00:39:25;11.90;99.90
51579;DHT22;47998;53.242;6.386;2023-05-10T00:41:52;11.80;99.90
51579;DHT22;47998;53.242;6.386;2023-05-10T00:44:18;12.10;99.90
51579;DHT22;47998;53.242;6.386;2023-05-10T00:46:44;12.00;99.90
51579;DHT22;47998;53.242;6.386;2023-05-10T00:49:10;12.10;99.90
51579;DHT22;47998;53.242;6.386;2023-05-10T00:51:36;11.60;99.90
51579;DHT22;47998;53.242;6.386;2023-05-10T00:54:02;11.60;99.90
51579;DHT22;47998;53.242;6.386;2023-05-10T00:56:28;12.00;99.90
51579;DHT22;47998;53.242;6.386;2023-05-10T00:58:55;11.90;99.90
51579;DHT22;47998;53.242;6.386;2023-05-10T01:01:21;11.60;99.90
51579;DHT22;47998;53.242;6.386;2023-05-10T01:03:47;12.00;99.90
51579;DHT22;47998;53.242;6.386;2023-05-10T01:06:13;11.70;99.90
51579;DHT22;47998;53.242;6.386;2023-05-10T01:08:42;11.60;99.90
51579;DHT22;47998;53.242;6.386;2023-05-10T01:11:08;11.80;99.90
51579;DHT22;47998;53.242;6.386;2023-05-10T01:13:39;11.50;99.90
51579;DHT22;47998;53.242;6.386;2023-05-10T01:16:06;11.60;99.90
51579;DHT22;47998;53.242;6.386;2023-05-10T01:18:40;12.00;99.90
51579;DHT22;47998;53.242;6.386;2023-05-10T01:21:27;11.70;99.90
51579;DHT22;47998;53.242;6.386;2023-05-10T01:24:35;11.60;99.90
51579;DHT22;47998;53.242;6.386;2023-05-10T01:35:37;11.80;99.90
51579;DHT22;47998;53.242;6.386;2023-05-10T01:38:24;11.80;99.90
51579;DHT22;47998;53.242;6.386;2023-05-10T01:41:01;11.40;99.90
51579;DHT22;47998;53.242;6.386;2023-05-10T01:43:33;11.40;99.90
51579;DHT22;47998;53.242;6.386;2023-05-10T01:46:04;11.70;99.90
51579;DHT22;47998;53.242;6.386;2023-05-10T01:48:40;11.80;99.90
51579;DHT22;47998;53.242;6.386;2023-05-10T01:51:13;11.90;99.90
51579;DHT22;47998;53.242;6.386;2023-05-10T01:53:42;11.90;99.90
51579;DHT22;47998;53.242;6.386;2023-05-10T01:56:09;11.90;99.90
51579;DHT22;47998;53.242;6.386;2023-05-10T01:58:36;11.80;99.90
51579;DHT22;47998;53.242;6.386;2023-05-10T02:01:04;11.80;99.90
51579;DHT22;47998;53.242;6.386;2023-05-10T02:03:32;11.80;99.90
51579;DHT22;47998;53.242;6.386;2023-05-10T02:05:59;11.40;99.90
51579;DHT22;47998;53.242;6.386;2023-05-10T02:08:26;11.40;99.90
51579;DHT22;47998;53.242;6.386;2023-05-10T02:10:54;11.80;99.90
51579;DHT22;47998;53.242;6.386;2023-05-10T02:13:21;11.40;99.90
51579;DHT22;47998;53.242;6.386;2023-05-10T02:15:48;11.80;99.90
51579;DHT22;47998;53.242;6.386;2023-05-10T02:18:16;11.90;99.90
51579;DHT22;47998;53.242;6.386;2023-05-10T02:20:45;11.30;99.90
51579;DHT22;47998;53.242;6.386;2023-05-10T02:23:12;11.60;99.90
51579;DHT22;47998;53.242;6.386;2023-05-10T02:25:39;11.40;99.90
51579;DHT22;47998;53.242;6.386;2023-05-10T02:28:07;11.30;99.90
51579;DHT22;47998;53.242;6.386;2023-05-10T02:30:34;11.30;99.90
51579;DHT22;47998;53.242;6.386;2023-05-10T02:33:02;11.30;99.90
51579;DHT22;47998;53.242;6.386;2023-05-10T02:35:29;11.70;99.90
51579;DHT22;47998;53.242;6.386;2023-05-10T02:37:57;11.80;99.90
51579;DHT22;47998;53.242;6.386;2023-05-10T02:40:24;11.50;99.90
51579;DHT22;47998;53.242;6.386;2023-05-10T02:42:52;11.40;99.90
51579;DHT22;47998;53.242;6.386;2023-05-10T02:45:23;11.70;99.90
51579;DHT22;47998;53.242;6.386;2023-05-10T02:47:50;11.70;99.90
51579;DHT22;47998;53.242;6.386;2023-05-10T02:50:16;11.60;99.90
51579;DHT22;47998;53.242;6.386;2023-05-10T02:52:47;11.30;99.90
51579;DHT22;47998;53.242;6.386;2023-05-10T02:55:15;11.70;99.90
51579;DHT22;47998;53.242;6.386;2023-05-10T02:57:59;11.50;99.90
51579;DHT22;47998;53.242;6.386;2023-05-10T03:00:25;11.70;99.90
51579;DHT22;47998;53.242;6.386;2023-05-10T03:02:51;11.70;99.90
51579;DHT22;47998;53.242;6.386;2023-05-10T03:05:18;11.30;99.90
51579;DHT22;47998;53.242;6.386;2023-05-10T03:07:44;11.70;99.90
51579;DHT22;47998;53.242;6.386;2023-05-10T03:10:10;11.70;99.90
51579;DHT22;47998;53.242;6.386;2023-05-10T03:12:42;11.70;99.90
51579;DHT22;47998;53.242;6.386;2023-05-10T03:18:01;11.70;99.90
51579;DHT22;47998;53.242;6.386;2023-05-10T03:20:42;11.80;99.90
51579;DHT22;47998;53.242;6.386;2023-05-10T03:25:44;11.70;99.90
51579;DHT22;47998;53.242;6.386;2023-05-10T03:28:13;11.70;99.90
51579;DHT22;47998;53.242;6.386;2023-05-10T03:30:41;11.80;99.90
51579;DHT22;47998;53.242;6.386;2023-05-10T03:33:07;11.50;99.90
51579;DHT22;47998;53.242;6.386;2023-05-10T03:35:33;11.40;99.90
51579;DHT22;47998;53.242;6.386;2023-05-10T03:37:58;11.70;99.90
51579;DHT22;47998;53.242;6.386;2023-05-10T03:40:25;11.30;99.90
51579;DHT22;47998;53.242;6.386;2023-05-10T03:42:51;11.80;99.90
51579;DHT22;47998;53.242;6.386;2023-05-10T03:45:17;11.50;99.90
51579;DHT22;47998;53.242;6.386;2023-05-10T03:47:42;11.70;99.90
51579;DHT22;47998;53.242;6.386;2023-05-10T03:50:08;11.30;99.90
51579;DHT22;47998;53.242;6.386;2023-05-10T03:52:35;11.70;99.90
51579;DHT22;47998;53.242;6.386;2023-05-10T03:55:01;11.70;99.90
51579;DHT22;47998;53.242;6.386;2023-05-10T03:57:29;11.70;99.90
51579;DHT22;47998;53.242;6.386;2023-05-10T03:59:54;11.60;99.90
51579;DHT22;47998;53.242;6.386;2023-05-10T04:02:20;11.80;99.90
51579;DHT22;47998;53.242;6.386;2023-05-10T04:04:46;11.40;99.90
51579;DHT22;47998;53.242;6.386;2023-05-10T04:07:12;11.50;99.90
51579;DHT22;47998;53.242;6.386;2023-05-10T04:09:37;11.70;99.90
51579;DHT22;47998;53.242;6.386;2023-05-10T04:12:03;11.30;99.90
51579;DHT22;47998;53.242;6.386;2023-05-10T04:14:29;11.50;99.90
51579;DHT22;47998;53.242;6.386;2023-05-10T04:16:54;11.30;99.90
51579;DHT22;47998;53.242;6.386;2023-05-10T04:19:20;11.60;99.90
51579;DHT22;47998;53.242;6.386;2023-05-10T04:21:46;11.40;99.90
51579;DHT22;47998;53.242;6.386;2023-05-10T04:24:12;11.70;99.90
51579;DHT22;47998;53.242;6.386;2023-05-10T04:26:37;11.40;99.90
51579;DHT22;47998;53.242;6.386;2023-05-10T04:29:03;11.30;99.90
51579;DHT22;47998;53.242;6.386;2023-05-10T04:31:29;11.80;99.90
51579;DHT22;47998;53.242;6.386;2023-05-10T04:33:54;11.60;99.90
51579;DHT22;47998;53.242;6.386;2023-05-10T04:36:20;11.30;99.90
51579;DHT22;47998;53.242;6.386;2023-05-10T04:38:46;11.30;99.90
51579;DHT22;47998;53.242;6.386;2023-05-10T04:41:14;11.40;99.90
51579;DHT22;47998;53.242;6.386;2023-05-10T04:43:40;11.40;99.90
51579;DHT22;47998;53.242;6.386;2023-05-10T04:46:06;11.50;99.90
51579;DHT22;47998;53.242;6.386;2023-05-10T04:48:32;11.40;99.90
51579;DHT22;47998;53.242;6.386;2023-05-10T04:50:58;11.40;99.90
51579;DHT22;47998;53.242;6.386;2023-05-10T04:53:24;11.80;99.90
51579;DHT22;47998;53.242;6.386;2023-05-10T04:55:50;11.40;99.90
51579;DHT22;47998;53.242;6.386;2023-05-10T04:58:16;11.40;99.90
51579;DHT22;47998;53.242;6.386;2023-05-10T05:00:41;11.70;99.90
51579;DHT22;47998;53.242;6.386;2023-05-10T05:03:07;11.50;99.90
51579;DHT22;47998;53.242;6.386;2023-05-10T05:05:33;11.90;99.90
51579;DHT22;47998;53.242;6.386;2023-05-10T05:07:59;11.80;99.90
51579;DHT22;47998;53.242;6.386;2023-05-10T05:10:25;11.40;99.90
51579;DHT22;47998;53.242;6.386;2023-05-10T05:12:50;11.40;99.90
51579;DHT22;47998;53.242;6.386;2023-05-10T05:15:16;11.90;99.90
51579;DHT22;47998;53.242;6.386;2023-05-10T05:17:43;11.90;99.90
51579;DHT22;47998;53.242;6.386;2023-05-10T05:20:09;11.90;99.90
51579;DHT22;47998;53.242;6.386;2023-05-10T05:22:38;11.60;99.90
51579;DHT22;47998;53.242;6.386;2023-05-10T05:25:05;12.00;99.90
51579;DHT22;47998;53.242;6.386;2023-05-10T05:27:31;11.70;99.90
51579;DHT22;47998;53.242;6.386;2023-05-10T05:29:57;12.00;99.90
51579;DHT22;47998;53.242;6.386;2023-05-10T05:32:23;12.00;99.90
51579;DHT22;47998;53.242;6.386;2023-05-10T05:34:49;11.50;99.90
51579;DHT22;47998;53.242;6.386;2023-05-10T05:37:17;11.60;99.90
51579;DHT22;47998;53.242;6.386;2023-05-10T05:39:42;11.70;99.90
51579;DHT22;47998;53.242;6.386;2023-05-10T05:42:09;11.80;99.90
51579;DHT22;47998;53.242;6.386;2023-05-10T05:44:35;12.10;99.90
51579;DHT22;47998;53.242;6.386;2023-05-10T05:47:00;12.00;99.90
51579;DHT22;47998;53.242;6.386;2023-05-10T05:49:26;12.00;99.90
51579;DHT22;47998;53.242;6.386;2023-05-10T05:51:52;11.70;99.90
51579;DHT22;47998;53.242;6.386;2023-05-10T05:54:18;12.10;99.90
51579;DHT22;47998;53.242;6.386;2023-05-10T05:56:43;11.70;99.90
51579;DHT22;47998;53.242;6.386;2023-05-10T05:59:10;12.00;99.90
51579;DHT22;47998;53.242;6.386;2023-05-10T06:01:36;11.50;99.90
51579;DHT22;47998;53.242;6.386;2023-05-10T06:04:04;11.50;99.90
51579;DHT22;47998;53.242;6.386;2023-05-10T06:06:29;11.80;99.90
51579;DHT22;47998;53.242;6.386;2023-05-10T06:08:55;12.00;99.90
51579;DHT22;47998;53.242;6.386;2023-05-10T06:11:21;11.90;99.90
51579;DHT22;47998;53.242;6.386;2023-05-10T06:13:47;11.80;99.90
51579;DHT22;47998;53.242;6.386;2023-05-10T06:16:13;11.60;99.90
51579;DHT22;47998;53.242;6.386;2023-05-10T06:18:39;11.30;99.90
51579;DHT22;47998;53.242;6.386;2023-05-10T06:21:05;11.60;99.90
51579;DHT22;47998;53.242;6.386;2023-05-10T06:23:30;11.30;99.90
51579;DHT22;47998;53.242;6.386;2023-05-10T06:25:56;11.70;99.90
51579;DHT22;47998;53.242;6.386;2023-05-10T06:28:22;11.30;99.90
51579;DHT22;47998;53.242;6.386;2023-05-10T06:30:48;11.80;99.90
51579;DHT22;47998;53.242;6.386;2023-05-10T06:33:13;11.40;99.90
51579;DHT22;47998;53.242;6.386;2023-05-10T06:35:39;11.60;99.90
51579;DHT22;47998;53.242;6.386;2023-05-10T06:38:05;11.50;99.90
51579;DHT22;47998;53.242;6.386;2023-05-10T06:40:31;11.20;99.90
51579;DHT22;47998;53.242;6.386;2023-05-10T06:42:58;11.60;99.90
51579;DHT22;47998;53.242;6.386;2023-05-10T06:45:23;11.70;99.90
51579;DHT22;47998;53.242;6.386;2023-05-10T06:47:49;11.20;99.90
51579;DHT22;47998;53.242;6.386;2023-05-10T06:50:15;11.40;99.90
51579;DHT22;47998;53.242;6.386;2023-05-10T06:52:41;11.20;99.90
51579;DHT22;47998;53.242;6.386;2023-05-10T06:55:07;11.40;99.90
51579;DHT22;47998;53.242;6.386;2023-05-10T06:57:33;11.40;99.90
51579;DHT22;47998;53.242;6.386;2023-05-10T06:59:59;11.40;99.90
51579;DHT22;47998;53.242;6.386;2023-05-10T07:02:25;11.40;99.90
51579;DHT22;47998;53.242;6.386;2023-05-10T07:04:51;11.60;99.90
51579;DHT22;47998;53.242;6.386;2023-05-10T07:07:18;11.80;99.90
51579;DHT22;47998;53.242;6.386;2023-05-10T07:09:44;11.80;99.90
51579;DHT22;47998;53.242;6.386;2023-05-10T07:12:10;11.50;99.90
51579;DHT22;47998;53.242;6.386;2023-05-10T07:14:36;11.50;99.90
51579;DHT22;47998;53.242;6.386;2023-05-10T07:17:01;11.60;99.90
51579;DHT22;47998;53.242;6.386;2023-05-10T07:19:27;12.00;99.90
51579;DHT22;47998;53.242;6.386;2023-05-10T07:21:54;11.80;99.90
51579;DHT22;47998;53.242;6.386;2023-05-10T07:24:20;12.00;99.90
51579;DHT22;47998;53.242;6.386;2023-05-10T07:26:46;11.70;99.90
51579;DHT22;47998;53.242;6.386;2023-05-10T07:29:12;11.80;99.90
51579;DHT22;47998;53.242;6.386;2023-05-10T07:31:38;11.90;99.90
51579;DHT22;47998;53.242;6.386;2023-05-10T07:34:03;11.70;99.90
51579;DHT22;47998;53.242;6.386;2023-05-10T07:36:29;11.70;99.90
51579;DHT22;47998;53.242;6.386;2023-05-10T07:38:55;11.70;99.90
51579;DHT22;47998;53.242;6.386;2023-05-10T07:41:23;12.20;99.90
51579;DHT22;47998;53.242;6.386;2023-05-10T07:43:48;12.20;99.90
51579;DHT22;47998;53.242;6.386;2023-05-10T07:46:14;11.70;99.90
51579;DHT22;47998;53.242;6.386;2023-05-10T07:48:40;11.70;99.90
51579;DHT22;47998;53.242;6.386;2023-05-10T07:51:06;12.10;99.90
51579;DHT22;47998;53.242;6.386;2023-05-10T07:53:34;12.10;99.90
51579;DHT22;47998;53.242;6.386;2023-05-10T07:56:31;12.20;99.90
51579;DHT22;47998;53.242;6.386;2023-05-10T07:58:58;11.70;99.90
51579;DHT22;47998;53.242;6.386;2023-05-10T08:01:25;11.80;99.90
51579;DHT22;47998;53.242;6.386;2023-05-10T08:03:51;12.30;99.90
51579;DHT22;47998;53.242;6.386;2023-05-10T08:06:19;11.80;99.90
51579;DHT22;47998;53.242;6.386;2023-05-10T08:08:46;12.20;99.90
51579;DHT22;47998;53.242;6.386;2023-05-10T08:11:20;12.20;99.90
51579;DHT22;47998;53.242;6.386;2023-05-10T08:13:48;12.20;99.90
51579;DHT22;47998;53.242;6.386;2023-05-10T08:16:14;11.90;99.90
51579;DHT22;47998;53.242;6.386;2023-05-10T08:18:40;12.20;99.90
51579;DHT22;47998;53.242;6.386;2023-05-10T08:21:06;12.30;99.90
51579;DHT22;47998;53.242;6.386;2023-05-10T08:23:32;12.20;99.90
51579;DHT22;47998;53.242;6.386;2023-05-10T08:25:58;11.90;99.90
51579;DHT22;47998;53.242;6.386;2023-05-10T08:28:28;12.30;99.90
51579;DHT22;47998;53.242;6.386;2023-05-10T08:30:54;11.80;99.90
51579;DHT22;47998;53.242;6.386;2023-05-10T08:33:24;12.10;99.90
51579;DHT22;47998;53.242;6.386;2023-05-10T08:35:50;12.20;99.90
51579;DHT22;47998;53.242;6.386;2023-05-10T08:38:16;12.20;99.90
51579;DHT22;47998;53.242;6.386;2023-05-10T08:40:42;11.90;99.90
51579;DHT22;47998;53.242;6.386;2023-05-10T08:43:11;11.80;99.90
51579;DHT22;47998;53.242;6.386;2023-05-10T08:45:41;12.00;99.90
51579;DHT22;47998;53.242;6.386;2023-05-10T08:48:10;12.00;99.90
51579;DHT22;47998;53.242;6.386;2023-05-10T08:50:39;11.80;99.90
51579;DHT22;47998;53.242;6.386;2023-05-10T08:53:09;11.90;99.90
51579;DHT22;47998;53.242;6.386;2023-05-10T08:55:35;12.30;99.90
51579;DHT22;47998;53.242;6.386;2023-05-10T08:58:07;12.30;99.90
51579;DHT22;47998;53.242;6.386;2023-05-10T09:00:33;12.30;99.90
51579;DHT22;47998;53.242;6.386;2023-05-10T09:03:00;12.30;99.90
51579;DHT22;47998;53.242;6.386;2023-05-10T09:05:28;12.40;99.90
51579;DHT22;47998;53.242;6.386;2023-05-10T09:07:54;12.50;99.90
51579;DHT22;47998;53.242;6.386;2023-05-10T09:10:20;12.50;99.90
51579;DHT22;47998;53.242;6.386;2023-05-10T09:12:48;12.70;99.90
51579;DHT22;47998;53.242;6.386;2023-05-10T09:15:19;12.60;99.90
51579;DHT22;47998;53.242;6.386;2023-05-10T09:17:46;12.90;99.90
51579;DHT22;47998;53.242;6.386;2023-05-10T09:20:12;13.10;99.90
51579;DHT22;47998;53.242;6.386;2023-05-10T09:22:38;13.00;99.90
51579;DHT22;47998;53.242;6.386;2023-05-10T09:25:07;13.20;99.90
51579;DHT22;47998;53.242;6.386;2023-05-10T09:27:34;13.30;99.90
51579;DHT22;47998;53.242;6.386;2023-05-10T09:30:00;13.30;99.90
51579;DHT22;47998;53.242;6.386;2023-05-10T09:32:39;13.10;99.90
51579;DHT22;47998;53.242;6.386;2023-05-10T09:35:11;13.10;99.90
51579;DHT22;47998;53.242;6.386;2023-05-10T09:37:40;13.20;99.90
51579;DHT22;47998;53.242;6.386;2023-05-10T09:40:08;13.50;99.90
51579;DHT22;47998;53.242;6.386;2023-05-10T09:42:36;13.60;99.90
51579;DHT22;47998;53.242;6.386;2023-05-10T09:45:07;13.80;99.90
51579;DHT22;47998;53.242;6.386;2023-05-10T09:47:36;13.90;99.90
51579;DHT22;47998;53.242;6.386;2023-05-10T09:50:03;13.90;99.90
51579;DHT22;47998;53.242;6.386;2023-05-10T09:55:13;13.90;99.90
51579;DHT22;47998;53.242;6.386;2023-05-10T09:57:39;14.00;99.90
51579;DHT22;47998;53.242;6.386;2023-05-10T10:00:07;13.90;99.90
51579;DHT22;47998;53.242;6.386;2023-05-10T10:02:35;13.90;99.90
51579;DHT22;47998;53.242;6.386;2023-05-10T10:05:02;14.10;99.90
51579;DHT22;47998;53.242;6.386;2023-05-10T10:07:31;14.00;99.90
51579;DHT22;47998;53.242;6.386;2023-05-10T10:09:58;14.00;99.90
51579;DHT22;47998;53.242;6.386;2023-05-10T10:12:25;13.90;99.90
51579;DHT22;47998;53.242;6.386;2023-05-10T10:14:50;14.00;99.90
51579;DHT22;47998;53.242;6.386;2023-05-10T10:17:17;13.70;99.90
51579;DHT22;47998;53.242;6.386;2023-05-10T10:19:43;13.70;99.90
51579;DHT22;47998;53.242;6.386;2023-05-10T10:22:09;13.70;99.90
51579;DHT22;47998;53.242;6.386;2023-05-10T10:24:38;13.70;99.90
51579;DHT22;47998;53.242;6.386;2023-05-10T10:27:23;13.80;99.90
51579;DHT22;47998;53.242;6.386;2023-05-10T10:35:29;13.90;99.90
51579;DHT22;47998;53.242;6.386;2023-05-10T10:37:56;14.00;99.90
51579;DHT22;47998;53.242;6.386;2023-05-10T10:42:52;14.10;99.90
51579;DHT22;47998;53.242;6.386;2023-05-10T10:45:20;14.50;99.90
51579;DHT22;47998;53.242;6.386;2023-05-10T10:47:46;14.70;99.90
51579;DHT22;47998;53.242;6.386;2023-05-10T10:50:12;15.00;99.90
51579;DHT22;47998;53.242;6.386;2023-05-10T10:52:39;15.10;99.90
51579;DHT22;47998;53.242;6.386;2023-05-10T10:55:19;15.00;99.90
51579;DHT22;47998;53.242;6.386;2023-05-10T10:57:53;14.90;99.90
51579;DHT22;47998;53.242;6.386;2023-05-10T11:07:58;14.80;99.90
51579;DHT22;47998;53.242;6.386;2023-05-10T11:10:25;14.80;99.90
51579;DHT22;47998;53.242;6.386;2023-05-10T11:15:33;15.00;99.90
51579;DHT22;47998;53.242;6.386;2023-05-10T11:17:59;14.90;99.90
51579;DHT22;47998;53.242;6.386;2023-05-10T11:20:32;14.80;99.90
51579;DHT22;47998;53.242;6.386;2023-05-10T11:23:13;15.00;99.90
51579;DHT22;47998;53.242;6.386;2023-05-10T11:25:42;15.10;99.90
51579;DHT22;47998;53.242;6.386;2023-05-10T11:28:08;15.00;99.90
51579;DHT22;47998;53.242;6.386;2023-05-10T11:30:36;15.00;99.90
51579;DHT22;47998;53.242;6.386;2023-05-10T11:33:02;15.00;99.90
51579;DHT22;47998;53.242;6.386;2023-05-10T11:35:28;14.90;99.90
51579;DHT22;47998;53.242;6.386;2023-05-10T11:37:53;14.70;99.90
51579;DHT22;47998;53.242;6.386;2023-05-10T11:40:21;14.60;99.90
51579;DHT22;47998;53.242;6.386;2023-05-10T11:42:49;14.60;99.90
51579;DHT22;47998;53.242;6.386;2023-05-10T11:45:14;14.50;99.90
51579;DHT22;47998;53.242;6.386;2023-05-10T11:47:40;14.40;99.90
51579;DHT22;47998;53.242;6.386;2023-05-10T11:50:09;14.40;99.90
51579;DHT22;47998;53.242;6.386;2023-05-10T11:52:36;14.30;99.90
51579;DHT22;47998;53.242;6.386;2023-05-10T11:55:05;14.20;99.90
51579;DHT22;47998;53.242;6.386;2023-05-10T11:57:31;14.20;99.90
51579;DHT22;47998;53.242;6.386;2023-05-10T11:59:57;14.10;99.90
51579;DHT22;47998;53.242;6.386;2023-05-10T12:02:23;14.10;99.90
51579;DHT22;47998;53.242;6.386;2023-05-10T12:04:50;14.10;99.90
51579;DHT22;47998;53.242;6.386;2023-05-10T12:07:16;14.10;99.90
51579;DHT22;47998;53.242;6.386;2023-05-10T12:10:11;14.20;99.90
51579;DHT22;47998;53.242;6.386;2023-05-10T12:12:43;14.20;99.90
51579;DHT22;47998;53.242;6.386;2023-05-10T12:15:17;14.30;99.90
51579;DHT22;47998;53.242;6.386;2023-05-10T12:17:44;14.50;99.90
51579;DHT22;47998;53.242;6.386;2023-05-10T12:20:20;14.50;99.90
51579;DHT22;47998;53.242;6.386;2023-05-10T12:22:57;14.80;99.90
51579;DHT22;47998;53.242;6.386;2023-05-10T12:25:30;15.00;99.90
51579;DHT22;47998;53.242;6.386;2023-05-10T12:27:57;15.00;99.90
51579;DHT22;47998;53.242;6.386;2023-05-10T12:30:24;15.10;99.90
51579;DHT22;47998;53.242;6.386;2023-05-10T12:32:50;15.20;99.90
51579;DHT22;47998;53.242;6.386;2023-05-10T12:35:17;15.20;99.90
51579;DHT22;47998;53.242;6.386;2023-05-10T12:37:45;15.00;99.90
51579;DHT22;47998;53.242;6.386;2023-05-10T12:40:11;14.90;99.90
51579;DHT22;47998;53.242;6.386;2023-05-10T12:42:38;15.00;99.90
51579;DHT22;47998;53.242;6.386;2023-05-10T12:45:05;14.80;99.90
51579;DHT22;47998;53.242;6.386;2023-05-10T12:47:32;15.00;99.90
51579;DHT22;47998;53.242;6.386;2023-05-10T12:49:58;15.10;99.90
51579;DHT22;47998;53.242;6.386;2023-05-10T12:52:24;15.20;99.90
51579;DHT22;47998;53.242;6.386;2023-05-10T12:54:52;15.20;99.90
51579;DHT22;47998;53.242;6.386;2023-05-10T12:57:19;15.40;99.90
51579;DHT22;47998;53.242;6.386;2023-05-10T12:59:45;15.50;99.90
51579;DHT22;47998;53.242;6.386;2023-05-10T13:02:11;15.80;99.90
51579;DHT22;47998;53.242;6.386;2023-05-10T13:04:37;16.00;99.90
51579;DHT22;47998;53.242;6.386;2023-05-10T13:07:08;15.90;99.90
51579;DHT22;47998;53.242;6.386;2023-05-10T13:09:34;15.80;1.00
51579;DHT22;47998;53.242;6.386;2023-05-10T13:12:00;15.90;99.90
51579;DHT22;47998;53.242;6.386;2023-05-10T13:14:26;15.70;99.90
51579;DHT22;47998;53.242;6.386;2023-05-10T13:16:52;15.40;83.30
51579;DHT22;47998;53.242;6.386;2023-05-10T13:19:18;15.30;1.00
51579;DHT22;47998;53.242;6.386;2023-05-10T13:21:44;15.30;99.90
51579;DHT22;47998;53.242;6.386;2023-05-10T13:24:10;15.20;1.00
51579;DHT22;47998;53.242;6.386;2023-05-10T13:26:42;15.20;99.90
51579;DHT22;47998;53.242;6.386;2023-05-10T13:29:08;15.40;99.90
51579;DHT22;47998;53.242;6.386;2023-05-10T13:31:34;15.40;99.90
51579;DHT22;47998;53.242;6.386;2023-05-10T13:34:00;15.60;99.90
51579;DHT22;47998;53.242;6.386;2023-05-10T13:36:26;15.80;99.90
51579;DHT22;47998;53.242;6.386;2023-05-10T13:38:51;15.80;99.90
51579;DHT22;47998;53.242;6.386;2023-05-10T13:41:17;15.90;99.90
51579;DHT22;47998;53.242;6.386;2023-05-10T13:43:43;15.60;99.90
51579;DHT22;47998;53.242;6.386;2023-05-10T13:46:09;15.50;99.90
51579;DHT22;47998;53.242;6.386;2023-05-10T13:48:34;15.40;99.90
51579;DHT22;47998;53.242;6.386;2023-05-10T13:51:02;15.30;99.90
51579;DHT22;47998;53.242;6.386;2023-05-10T13:53:28;15.20;99.90
51579;DHT22;47998;53.242;6.386;2023-05-10T13:55:53;15.20;99.90
51579;DHT22;47998;53.242;6.386;2023-05-10T13:58:19;15.30;99.90
51579;DHT22;47998;53.242;6.386;2023-05-10T14:00:45;15.20;99.90
51579;DHT22;47998;53.242;6.386;2023-05-10T14:03:11;15.20;99.90
51579;DHT22;47998;53.242;6.386;2023-05-10T14:05:36;15.20;99.90
51579;DHT22;47998;53.242;6.386;2023-05-10T14:08:02;15.20;99.90
51579;DHT22;47998;53.242;6.386;2023-05-10T14:10:28;15.20;99.90
51579;DHT22;47998;53.242;6.386;2023-05-10T14:12:54;15.40;99.90
51579;DHT22;47998;53.242;6.386;2023-05-10T14:15:19;15.60;99.90
51579;DHT22;47998;53.242;6.386;2023-05-10T14:17:45;15.80;99.90
51579;DHT22;47998;53.242;6.386;2023-05-10T14:20:11;16.00;99.90
51579;DHT22;47998;53.242;6.386;2023-05-10T14:22:37;15.90;99.90
51579;DHT22;47998;53.242;6.386;2023-05-10T14:25:03;15.90;99.90
51579;DHT22;47998;53.242;6.386;2023-05-10T14:27:29;15.80;97.50
51579;DHT22;47998;53.242;6.386;2023-05-10T14:29:55;15.80;20.50
51579;DHT22;47998;53.242;6.386;2023-05-10T14:32:21;15.80;99.90
51579;DHT22;47998;53.242;6.386;2023-05-10T14:34:47;15.80;99.90
51579;DHT22;47998;53.242;6.386;2023-05-10T14:37:13;15.80;99.20
51579;DHT22;47998;53.242;6.386;2023-05-10T14:39:39;15.90;99.90
51579;DHT22;47998;53.242;6.386;2023-05-10T14:42:05;16.10;99.90
51579;DHT22;47998;53.242;6.386;2023-05-10T14:44:31;16.40;99.90
51579;DHT22;47998;53.242;6.386;2023-05-10T14:46:57;16.60;99.90
51579;DHT22;47998;53.242;6.386;2023-05-10T14:49:22;16.80;99.90
51579;DHT22;47998;53.242;6.386;2023-05-10T14:51:50;16.70;99.90
51579;DHT22;47998;53.242;6.386;2023-05-10T14:54:16;16.60;99.90
51579;DHT22;47998;53.242;6.386;2023-05-10T14:56:42;16.40;99.90
51579;DHT22;47998;53.242;6.386;2023-05-10T14:59:08;16.20;99.90
51579;DHT22;47998;53.242;6.386;2023-05-10T15:01:34;16.10;99.90
51579;DHT22;47998;53.242;6.386;2023-05-10T15:04:03;16.10;99.90
51579;DHT22;47998;53.242;6.386;2023-05-10T15:06:33;16.00;99.90
51579;DHT22;47998;53.242;6.386;2023-05-10T15:09:00;15.90;99.90
51579;DHT22;47998;53.242;6.386;2023-05-10T15:11:26;15.90;1.00
51579;DHT22;47998;53.242;6.386;2023-05-10T15:13:52;15.60;1.00
51579;DHT22;47998;53.242;6.386;2023-05-10T15:16:18;15.50;18.80
51579;DHT22;47998;53.242;6.386;2023-05-10T15:18:44;15.40;99.90
51579;DHT22;47998;53.242;6.386;2023-05-10T15:21:09;15.40;99.90
51579;DHT22;47998;53.242;6.386;2023-05-10T15:23:35;15.40;99.90
51579;DHT22;47998;53.242;6.386;2023-05-10T15:26:01;15.30;99.90
51579;DHT22;47998;53.242;6.386;2023-05-10T15:28:28;15.30;99.90
51579;DHT22;47998;53.242;6.386;2023-05-10T15:30:54;15.40;99.90
51579;DHT22;47998;53.242;6.386;2023-05-10T15:33:20;15.30;99.90
51579;DHT22;47998;53.242;6.386;2023-05-10T15:35:46;15.30;99.90
51579;DHT22;47998;53.242;6.386;2023-05-10T15:38:12;15.50;99.90
51579;DHT22;47998;53.242;6.386;2023-05-10T15:40:37;15.70;99.90
51579;DHT22;47998;53.242;6.386;2023-05-10T15:43:03;15.50;99.90
51579;DHT22;47998;53.242;6.386;2023-05-10T15:45:30;15.70;99.90
51579;DHT22;47998;53.242;6.386;2023-05-10T15:47:57;15.70;99.90
51579;DHT22;47998;53.242;6.386;2023-05-10T15:50:23;15.70;99.90
51579;DHT22;47998;53.242;6.386;2023-05-10T15:52:48;16.10;99.90
51579;DHT22;47998;53.242;6.386;2023-05-10T15:55:14;16.10;99.90
51579;DHT22;47998;53.242;6.386;2023-05-10T15:57:41;15.90;99.90
51579;DHT22;47998;53.242;6.386;2023-05-10T16:00:08;16.10;99.90
51579;DHT22;47998;53.242;6.386;2023-05-10T16:02:34;16.30;99.90
51579;DHT22;47998;53.242;6.386;2023-05-10T16:05:00;16.90;99.90